Couch, MO (65690)

3:27 PM CDT on July 28, 2014 (GMT -0500)
Rural Ravenden Springs (KARRAVEN1) Elev 605 ft | 36.31 °N, 91.20 °W | Change Station

Current weather conditions updated 4 seconds ago

Scattered Clouds
Scattered Clouds
82.8 °F
Feels Like 81 °F
N
2.7
Wind Variable Wind from North
Gusts 3.5 mph

Today is forecast to be Much Cooler than yesterday.

Today
High -- | Low -- °F
--% Chance of Precip.
Yesterday
High -- | Low -- °F
Precip. -- in
6:08 AM 8:14 PM
Waxing Crescent, 3% visible
Pressure 30.06 in
Visibility 10.0 miles
Clouds Scattered Clouds 7000 ft
Heat Index 81 °F
Dew Point 52 °F
Humidity 34%
Rainfall 0.00 in
Snow Depth Not available.
UV 7 out of 12
Pollen 6.60 out of 12
Air Quality Not available.
Flu Activity Not available.
METAR KARG 282015Z AUTO 34010KT 10SM SCT070 29/16 A3006 RMK AO1

More Conditions Fewer Conditions

Pressure 30.06 in
Visibility 10.0 miles
Clouds Scattered Clouds 7000 ft
Heat Index 81 °F
Dew Point 52 °F
Humidity 34%
Rainfall 0.00 in
Snow Depth Not available.
UV 7 out of 12
Pollen 6.60 out of 12
Air Quality Not available.
Flu Activity Not available.
METAR KARG 282015Z AUTO 34010KT 10SM SCT070 29/16 A3006 RMK AO1

More Conditions Fewer Conditions

10-Day Weather Forecast

Almanac

Astronomy

Jul. 28, 2014 Rise Set
Actual Time 6:08 AM CDT 8:14 PM CDT
Civil Twilight 5:39 AM CDT 8:43 PM CDT
Nautical Twilight 5:04 AM CDT 9:18 PM CDT
Astronomical Twilight 4:26 AM CDT 9:56 PM CDT
Moon 7:45 AM CDT 9:01 PM CDT
Length of Visible Light 15h 04m
Length of Day
14h 06m
Tomorrow will be 1m 38s shorter.
Waxing Crescent, 3% of the Moon is Illuminated
Today
Waxing Crescent
Aug 3
First Quarter
Aug 10
Full
Aug 17
Last Quarter
Aug 25
New

Today's Extremes

State Highs State Lows

Community

WunderPhotos

Upload Photos

1,738,488 photos uploaded!

Nearby

Snow Depth

Station Depth Elevation
No new snow has been reported.

Earthquake Activity

City Distance Mag. Time & Date
No recent earthquake activity has been reported nearby.
Minimum magnitude displayed is 2.5.

Coastal Water Temperatures

Place Temperature
No Stations Reporting

Nearby Weather Stations

Station Location Temp. Heat Index Dew Point Humidity Wind Precip. Elev Updated Type
Rural Ravenden Springs, Ravenden Springs, AR 82.8 °F 81 °F 52 °F 34% North  at  2.7 mph 0.00 in / hr 605 ft 3:27 PM CDT Rapid Fire

Show More Stations Show Fewer Stations